createdAt,value
2023-11-24T00:00:10.643Z,101461.59
2023-11-24T00:02:41.629Z,101477.59
2023-11-24T00:05:11.441Z,101482.03
2023-11-24T00:07:40.858Z,101445.84
2023-11-24T00:10:10.507Z,101475.88
2023-11-24T00:12:38.976Z,101482.09
2023-11-24T00:15:08.310Z,101475.88
2023-11-24T00:17:39.267Z,101471.47
2023-11-24T00:20:11.675Z,101474.06
2023-11-24T00:22:40.165Z,101480.25
2023-11-24T00:25:10.408Z,101484.69
2023-11-24T00:27:38.952Z,101481.09
2023-11-24T00:30:09.347Z,101477.59
2023-11-24T00:32:37.799Z,101467.84
2023-11-24T00:35:07.953Z,101469.63
2023-11-24T00:37:37.725Z,101463.41
2023-11-24T00:40:09.278Z,101451.00
2023-11-24T00:42:37.781Z,101449.25
2023-11-24T00:45:08.056Z,101417.34
2023-11-24T00:47:36.463Z,101443.88
2023-11-24T00:50:06.944Z,101433.28
2023-11-24T00:52:35.359Z,101430.56
2023-11-24T00:55:05.919Z,101416.50
2023-11-24T00:57:34.871Z,101441.16
2023-11-24T01:00:05.840Z,101436.81
2023-11-24T01:02:34.663Z,101448.31
2023-11-24T01:05:03.219Z,101447.44
2023-11-24T01:07:31.913Z,101434.16
2023-11-24T01:10:00.595Z,101434.16
2023-11-24T01:12:30.630Z,101435.88
2023-11-24T01:14:58.987Z,101438.50
2023-11-24T01:17:27.362Z,101443.84
2023-11-24T01:19:55.742Z,101427.06
2023-11-24T01:22:25.889Z,101442.13
2023-11-24T01:24:54.279Z,101434.91
2023-11-24T01:27:22.680Z,101429.63
2023-11-24T01:29:52.675Z,101415.53
2023-11-24T01:32:21.111Z,101445.38
2023-11-24T01:34:49.384Z,101466.75
2023-11-24T01:37:17.727Z,101456.19
2023-11-24T01:39:46.258Z,101452.69
2023-11-24T01:42:14.780Z,101454.41
2023-11-24T01:44:43.488Z,101454.38
2023-11-24T01:47:13.823Z,101440.28
2023-11-24T01:49:42.274Z,101441.09
2023-11-24T01:52:10.861Z,101439.28
2023-11-24T01:54:40.373Z,101426.13
2023-11-24T01:57:09.553Z,101421.47
2023-11-24T01:59:38.797Z,101409.19
2023-11-24T02:02:07.670Z,101414.50
2023-11-24T02:04:37.474Z,101396.88
2023-11-24T02:07:06.281Z,101406.44
2023-11-24T02:09:35.414Z,101402.03
2023-11-24T02:12:03.755Z,101405.72
2023-11-24T02:14:33.133Z,101407.47
2023-11-24T02:17:01.597Z,101409.31
2023-11-24T02:19:30.345Z,101398.69
2023-11-24T02:22:00.086Z,101400.41
2023-11-24T02:24:30.469Z,101409.25
2023-11-24T02:27:00.366Z,101400.47
2023-11-24T02:29:29.301Z,101394.31
2023-11-24T02:31:57.653Z,101392.56
2023-11-24T02:34:26.007Z,101397.06
2023-11-24T02:36:54.386Z,101387.31
2023-11-24T02:39:24.190Z,101380.25
2023-11-24T02:41:54.219Z,101380.31
2023-11-24T02:44:22.861Z,101367.03
2023-11-24T02:46:51.378Z,101358.19
2023-11-24T02:49:20.169Z,101363.56
2023-11-24T02:51:48.822Z,101345.88
2023-11-24T02:54:17.968Z,101339.72
2023-11-24T02:56:46.261Z,101341.53
2023-11-24T02:59:16.099Z,101343.31
2023-11-24T03:01:44.506Z,101340.69
2023-11-24T03:04:13.428Z,101330.09
2023-11-24T03:06:43.229Z,101327.44
2023-11-24T03:09:11.676Z,101329.19
2023-11-24T03:11:40.289Z,101318.56
2023-11-24T03:14:08.675Z,101323.88
2023-11-24T03:16:38.445Z,101337.09
2023-11-24T03:19:06.889Z,101319.47
2023-11-24T03:21:35.284Z,101335.31
2023-11-24T03:24:04.840Z,101315.06
2023-11-24T03:26:33.109Z,101316.84
2023-11-24T03:29:01.429Z,101308.00
2023-11-24T03:31:30.053Z,101305.41
2023-11-24T03:33:59.833Z,101298.34
2023-11-24T03:36:28.319Z,101304.50
2023-11-24T03:38:56.664Z,101308.91
2023-11-24T03:41:24.960Z,101301.84
2023-11-24T03:43:53.486Z,101290.38
2023-11-24T03:46:22.067Z,101172.88
2023-11-24T03:48:50.550Z,101313.25
2023-11-24T03:51:22.056Z,101306.22
2023-11-24T03:53:50.388Z,101295.56
2023-11-24T03:56:19.184Z,101308.78
2023-11-24T03:58:47.702Z,101293.78
2023-11-24T04:01:16.585Z,101297.34
2023-11-24T04:03:47.655Z,101285.00
2023-11-24T04:06:16.665Z,101285.00
2023-11-24T04:08:46.597Z,101286.78
2023-11-24T04:11:15.476Z,101298.22
2023-11-24T04:13:43.778Z,101292.94
2023-11-24T04:16:12.124Z,101305.13
2023-11-24T04:18:40.742Z,101302.34
2023-11-24T04:21:09.863Z,101290.84
2023-11-24T04:23:38.243Z,101280.16
2023-11-24T04:26:08.459Z,101279.31
2023-11-24T04:28:36.778Z,101277.53
2023-11-24T04:31:05.393Z,101266.03
2023-11-24T04:33:34.041Z,101274.91
2023-11-24T04:36:02.400Z,101267.88
2023-11-24T04:38:30.796Z,101267.94
2023-11-24T04:40:59.161Z,101269.84
2023-11-24T04:43:28.840Z,101272.53
2023-11-24T04:45:57.577Z,101296.22
2023-11-24T04:48:25.993Z,101289.84
2023-11-24T04:50:54.559Z,101284.47
2023-11-24T04:53:23.591Z,101297.75
2023-11-24T04:55:51.912Z,101294.13
2023-11-24T04:58:20.305Z,101271.94
2023-11-24T05:00:50.028Z,101276.44
2023-11-24T05:03:18.393Z,101255.28
2023-11-24T05:05:46.683Z,101255.31
2023-11-24T05:08:15.578Z,101262.28
2023-11-24T05:10:44.088Z,101258.91
2023-11-24T05:13:12.488Z,101282.66
2023-11-24T05:15:40.925Z,101275.38
2023-11-24T05:18:10.687Z,101268.41
2023-11-24T05:20:39.561Z,101258.81
2023-11-24T05:23:08.032Z,101231.38
2023-11-24T05:25:36.569Z,101245.53
2023-11-24T05:28:05.352Z,101228.09
2023-11-24T05:30:33.762Z,101227.16
2023-11-24T05:33:02.423Z,101233.34
2023-11-24T05:35:32.306Z,101235.16
2023-11-24T05:38:00.642Z,101214.97
2023-11-24T05:40:29.562Z,101222.88
2023-11-24T05:42:57.937Z,101220.41
2023-11-24T05:45:26.318Z,101217.72
2023-11-24T05:47:54.701Z,101209.78
2023-11-24T05:50:24.161Z,101215.09
2023-11-24T05:52:53.918Z,101194.91
2023-11-24T05:55:22.410Z,101209.06
2023-11-24T05:57:51.052Z,101211.66
2023-11-24T06:00:20.233Z,101217.88
2023-11-24T06:02:48.624Z,101233.84
2023-11-24T06:05:17.930Z,101208.22
2023-11-24T06:07:48.433Z,101231.97
2023-11-24T06:10:20.130Z,101225.75
2023-11-24T06:12:48.496Z,101227.53
2023-11-24T06:15:16.995Z,101223.09
2023-11-24T06:17:45.314Z,101216.03
2023-11-24T06:20:14.036Z,101220.44
2023-11-24T06:22:45.149Z,101216.91
2023-11-24T06:25:16.198Z,101201.94
2023-11-24T06:27:46.701Z,101201.97
2023-11-24T06:30:15.467Z,101204.63
2023-11-24T06:32:43.759Z,101211.69
2023-11-24T06:35:12.218Z,101212.59
2023-11-24T06:37:42.029Z,101225.03
2023-11-24T06:40:13.164Z,101216.16
2023-11-24T06:42:42.078Z,101230.13
2023-11-24T06:45:14.232Z,101212.53
2023-11-24T06:47:43.338Z,101229.09
2023-11-24T06:50:13.424Z,101199.84
2023-11-24T06:52:42.480Z,101247.53
2023-11-24T06:55:12.405Z,101245.00
2023-11-24T06:57:40.998Z,101239.75
2023-11-24T07:00:18.576Z,101244.16
2023-11-24T07:02:47.576Z,101240.56
2023-11-24T07:05:16.152Z,101244.13
2023-11-24T07:07:44.618Z,101238.00
2023-11-24T07:10:14.835Z,101251.00
2023-11-24T07:12:45.151Z,101236.91
2023-11-24T07:15:15.243Z,101235.91
2023-11-24T07:17:44.501Z,101236.53
2023-11-24T07:20:14.054Z,101207.63
2023-11-24T07:22:44.045Z,101222.59
2023-11-24T07:25:15.164Z,101219.97
2023-11-24T07:27:43.820Z,101220.75
2023-11-24T07:30:15.447Z,101206.72
2023-11-24T07:32:43.954Z,101204.97
2023-11-24T07:35:15.355Z,101201.44
2023-11-24T07:37:43.901Z,101202.41
2023-11-24T07:40:16.012Z,101201.59
2023-11-24T07:42:46.136Z,101108.84
2023-11-24T07:45:16.860Z,101217.53
2023-11-24T07:47:45.772Z,101213.22
2023-11-24T07:50:14.195Z,101225.53
2023-11-24T07:52:45.160Z,101227.41
2023-11-24T07:55:15.042Z,101224.72
2023-11-24T07:57:44.125Z,101218.47
2023-11-24T08:00:14.839Z,101235.19
2023-11-24T08:02:44.952Z,101215.06
2023-11-24T08:05:13.795Z,101209.41
2023-11-24T08:07:42.194Z,101239.16
2023-11-24T08:10:11.616Z,101216.97
2023-11-24T08:12:39.959Z,101219.69
2023-11-24T08:15:10.741Z,101186.88
2023-11-24T08:17:40.104Z,101207.28
2023-11-24T08:20:12.394Z,101234.66
2023-11-24T08:22:41.278Z,101195.84
2023-11-24T08:25:11.247Z,101217.97
2023-11-24T08:27:39.898Z,101196.91
2023-11-24T08:30:12.842Z,101192.44
2023-11-24T08:32:45.510Z,101157.13
2023-11-24T08:35:16.576Z,101200.28
2023-11-24T08:37:45.133Z,101195.06
2023-11-24T08:40:18.032Z,101188.06
2023-11-24T08:42:46.974Z,101193.38
2023-11-24T08:45:17.748Z,101189.00
2023-11-24T08:47:47.944Z,101175.91
2023-11-24T08:50:19.314Z,101167.22
2023-11-24T08:52:49.264Z,101182.28
2023-11-24T08:55:18.146Z,101193.00
2023-11-24T08:57:46.797Z,101194.84
2023-11-24T09:00:16.550Z,101181.56
2023-11-24T09:02:46.092Z,101174.63
2023-11-24T09:05:14.613Z,101169.28
2023-11-24T09:07:45.719Z,101156.91
2023-11-24T09:10:16.113Z,101166.63
2023-11-24T09:12:44.752Z,101187.00
2023-11-24T09:15:13.163Z,101152.59
2023-11-24T09:17:41.502Z,101164.06
2023-11-24T09:20:13.342Z,101169.44
2023-11-24T09:22:42.997Z,101150.91
2023-11-24T09:25:13.000Z,101158.84
2023-11-24T09:27:41.431Z,101158.81
2023-11-24T09:30:11.943Z,101170.31
2023-11-24T09:32:43.167Z,101165.03
2023-11-24T09:35:12.323Z,101159.75
2023-11-24T09:37:40.864Z,101157.97
2023-11-24T09:40:17.382Z,101149.19
2023-11-24T09:42:48.583Z,101146.63
2023-11-24T09:45:20.771Z,101133.38
2023-11-24T09:47:53.033Z,101160.75
2023-11-24T09:50:25.960Z,101163.41
2023-11-24T09:52:56.940Z,101155.44
2023-11-24T09:55:30.112Z,101150.97
2023-11-24T09:57:59.504Z,101157.16
2023-11-24T10:00:29.236Z,101130.69
2023-11-24T10:03:01.837Z,101161.53
2023-11-24T10:05:31.750Z,101164.19
2023-11-24T10:08:02.105Z,101167.78
2023-11-24T10:10:32.169Z,101183.69
2023-11-24T10:13:04.128Z,101171.34
2023-11-24T10:15:33.575Z,101156.34
2023-11-24T10:18:03.380Z,101168.69
2023-11-24T10:20:32.730Z,101156.34
2023-11-24T10:23:02.071Z,101181.94
2023-11-24T10:25:35.251Z,101206.59
2023-11-24T10:28:07.934Z,101214.53
2023-11-24T10:30:36.436Z,101223.28
2023-11-24T10:33:06.457Z,101215.19
2023-11-24T10:35:34.902Z,101190.38
2023-11-24T10:38:04.029Z,101174.41
2023-11-24T10:40:34.834Z,101178.75
2023-11-24T10:43:05.825Z,101037.28
2023-11-24T10:45:36.092Z,101164.47
2023-11-24T10:48:11.948Z,101140.72
2023-11-24T10:50:44.177Z,101142.66
2023-11-24T10:53:22.813Z,101141.88
2023-11-24T10:55:55.641Z,101036.97
2023-11-24T10:58:24.215Z,101132.34
2023-11-24T11:00:52.940Z,101127.94
2023-11-24T11:03:21.287Z,101130.63
2023-11-24T11:06:05.239Z,101132.41
2023-11-24T11:08:40.027Z,101138.44
2023-11-24T11:11:46.178Z,101128.81
2023-11-24T11:14:15.914Z,101124.47
2023-11-24T11:16:46.139Z,101120.06
2023-11-24T11:19:33.393Z,101120.97
2023-11-24T11:22:02.753Z,101106.03
2023-11-24T11:24:31.411Z,101099.84
2023-11-24T11:27:01.099Z,101104.22
2023-11-24T11:29:33.394Z,101076.75
2023-11-24T11:32:03.592Z,101110.19
2023-11-24T11:34:33.322Z,101077.63
2023-11-24T11:37:08.334Z,101093.44
2023-11-24T11:39:51.208Z,101060.97
2023-11-24T11:42:23.386Z,101090.97
2023-11-24T11:44:58.200Z,101080.41
2023-11-24T11:47:28.006Z,101075.16
2023-11-24T11:49:58.933Z,101086.59
2023-11-24T11:52:29.876Z,101095.44
2023-11-24T11:55:01.934Z,101095.44
2023-11-24T11:57:31.765Z,101080.44
2023-11-24T12:00:00.227Z,101074.31
2023-11-24T12:02:28.830Z,101088.41
2023-11-24T12:04:57.829Z,101065.53
2023-11-24T12:07:27.555Z,101073.50
2023-11-24T12:09:56.125Z,101072.59
2023-11-24T12:12:25.272Z,101068.19
2023-11-24T12:14:56.093Z,101056.72
2023-11-24T12:17:25.258Z,101062.91
2023-11-24T12:19:55.067Z,101023.25
2023-11-24T12:22:24.646Z,101045.28
2023-11-24T12:24:54.274Z,101055.00
2023-11-24T12:27:23.255Z,101065.50
2023-11-24T12:29:52.801Z,101047.94
2023-11-24T12:32:27.824Z,101054.13
2023-11-24T12:35:00.912Z,101066.44
2023-11-24T12:37:30.094Z,101070.78
2023-11-24T12:39:58.583Z,101054.91
2023-11-24T12:42:30.486Z,101054.91
2023-11-24T12:45:00.414Z,101042.59
2023-11-24T12:50:07.720Z,101018.75
2023-11-24T12:52:37.318Z,101040.84
2023-11-24T12:55:08.642Z,101034.66
2023-11-24T12:57:39.294Z,101038.19
2023-11-24T13:00:14.151Z,101019.69
2023-11-24T13:02:44.571Z,101021.47
2023-11-24T13:05:14.737Z,101023.22
2023-11-24T13:07:43.935Z,101029.38
2023-11-24T13:10:13.107Z,101019.75
2023-11-24T13:12:43.149Z,101017.97
2023-11-24T13:15:12.186Z,101014.41
2023-11-24T13:17:40.812Z,101002.09
2023-11-24T13:20:13.211Z,101009.16
2023-11-24T13:22:43.459Z,101001.22
2023-11-24T13:25:12.827Z,100986.22
2023-11-24T13:27:42.874Z,100980.94
2023-11-24T13:30:13.606Z,100997.69
2023-11-24T13:32:43.404Z,100999.44
2023-11-24T13:35:15.468Z,100983.59
2023-11-24T13:37:45.961Z,100979.19
2023-11-24T13:40:14.786Z,100985.38
2023-11-24T13:42:43.685Z,101014.41
2023-11-24T13:45:13.509Z,101004.72
2023-11-24T13:47:42.905Z,100884.09
2023-11-24T13:50:14.977Z,100977.41
2023-11-24T13:52:45.126Z,100995.91
2023-11-24T13:55:14.794Z,101014.41
2023-11-24T13:57:43.225Z,101012.59
2023-11-24T14:00:13.147Z,101014.34
2023-11-24T14:02:42.443Z,101023.13
2023-11-24T14:05:14.299Z,101013.38
2023-11-24T14:07:45.707Z,101009.00
2023-11-24T14:10:19.106Z,101005.53
2023-11-24T14:12:49.695Z,100995.81
2023-11-24T14:15:18.395Z,101010.84
2023-11-24T14:17:46.868Z,101003.78
2023-11-24T14:20:17.489Z,101007.38
2023-11-24T14:22:47.175Z,101027.63
2023-11-24T14:25:15.913Z,101031.97
2023-11-24T14:27:44.315Z,101033.66
2023-11-24T14:30:14.167Z,101034.56
2023-11-24T14:32:43.205Z,101037.22
2023-11-24T14:35:12.781Z,101053.03
2023-11-24T14:37:42.651Z,101055.75
2023-11-24T14:40:20.269Z,101041.59
2023-11-24T14:42:51.651Z,101044.19
2023-11-24T14:45:21.889Z,101033.63
2023-11-24T14:47:51.383Z,101036.28
2023-11-24T14:50:26.461Z,101027.44
2023-11-24T14:52:58.852Z,101029.13
2023-11-24T14:55:29.828Z,101027.34
2023-11-24T14:58:00.452Z,100923.25
2023-11-24T15:00:34.459Z,101023.81
2023-11-24T15:03:08.349Z,101045.03
2023-11-24T15:05:39.637Z,100990.41
2023-11-24T15:08:10.920Z,101023.72
2023-11-24T15:10:42.889Z,101024.66
2023-11-24T15:13:11.777Z,101027.28
2023-11-24T15:15:41.168Z,101018.56
2023-11-24T15:18:11.083Z,101029.97
2023-11-24T15:20:41.558Z,101042.38
2023-11-24T15:23:12.672Z,101049.47
2023-11-24T15:25:49.362Z,100984.25
2023-11-24T15:28:22.797Z,101022.59
2023-11-24T15:30:53.653Z,101021.03
2023-11-24T15:33:22.853Z,101000.75
2023-11-24T15:35:53.090Z,101000.81
2023-11-24T15:38:24.409Z,101005.25
2023-11-24T15:40:53.873Z,101015.91
2023-11-24T15:43:23.243Z,101003.59
2023-11-24T15:45:55.180Z,101007.22
2023-11-24T15:48:24.544Z,101014.31
2023-11-24T15:50:53.773Z,101037.13
2023-11-24T15:53:23.685Z,101043.38
2023-11-24T15:55:52.781Z,100998.41
2023-11-24T15:58:26.172Z,101031.91
2023-11-24T16:00:57.758Z,101042.44
2023-11-24T16:03:26.728Z,101079.34
2023-11-24T16:05:59.104Z,101024.50
2023-11-24T16:08:34.400Z,101044.59
2023-11-24T16:11:11.061Z,101039.31
2023-11-24T16:13:42.712Z,101043.69
2023-11-24T16:16:12.097Z,101053.34
2023-11-24T16:18:43.265Z,101047.38
2023-11-24T16:21:11.768Z,101041.28
2023-11-24T16:23:41.953Z,101035.16
2023-11-24T16:26:11.241Z,101028.19
2023-11-24T16:28:40.264Z,101062.47
2023-11-24T16:31:09.032Z,101058.03
2023-11-24T16:33:38.898Z,101063.22
2023-11-24T16:36:09.599Z,101069.31
2023-11-24T16:38:38.253Z,101056.97
2023-11-24T16:41:08.261Z,101016.38
2023-11-24T16:43:36.556Z,101049.88
2023-11-24T16:46:09.301Z,101067.41
2023-11-24T16:48:41.634Z,101049.00
2023-11-24T16:51:09.955Z,101057.72
2023-11-24T16:53:38.254Z,101030.47
2023-11-24T16:56:08.511Z,101046.28
2023-11-24T16:58:36.870Z,101044.28
2023-11-24T17:01:05.298Z,101068.13
2023-11-24T17:03:37.429Z,101056.81
2023-11-24T17:06:06.354Z,101049.81
2023-11-24T17:08:34.732Z,101056.81
2023-11-24T17:11:07.268Z,101042.66
2023-11-24T17:13:37.229Z,101037.38
2023-11-24T17:16:07.487Z,101067.41
2023-11-24T17:18:37.403Z,101056.81
2023-11-24T17:21:06.624Z,101075.41
2023-11-24T17:23:36.171Z,101093.13
2023-11-24T17:26:04.548Z,101083.50
2023-11-24T17:28:32.987Z,101100.19
2023-11-24T17:31:05.448Z,101091.34
2023-11-24T17:33:34.935Z,101080.75
2023-11-24T17:36:04.633Z,101073.56
2023-11-24T17:38:32.932Z,101073.31
2023-11-24T17:41:02.010Z,101053.94
2023-11-24T17:43:30.440Z,101048.69
2023-11-24T17:45:59.033Z,101053.19
2023-11-24T17:48:28.708Z,101056.53
2023-11-24T17:50:57.009Z,101068.94
2023-11-24T17:53:25.349Z,101050.63
2023-11-24T17:55:53.683Z,101065.72
2023-11-24T17:58:22.087Z,101065.72
2023-11-24T18:00:51.146Z,101070.09
2023-11-24T18:03:19.637Z,101061.41
2023-11-24T18:05:49.554Z,101065.88
2023-11-24T18:08:22.073Z,101075.69
2023-11-24T18:10:50.747Z,101065.00
2023-11-24T18:13:19.361Z,101083.69
2023-11-24T18:15:47.898Z,101087.13
2023-11-24T18:18:16.763Z,101087.25
2023-11-24T18:20:46.711Z,101092.53
2023-11-24T18:23:16.399Z,101088.06
2023-11-24T18:25:45.108Z,101097.84
2023-11-24T18:28:15.581Z,101060.06
2023-11-24T18:30:44.401Z,101096.13
2023-11-24T18:33:12.832Z,101090.91
2023-11-24T18:35:41.150Z,101087.34
2023-11-24T18:38:10.135Z,101082.88
2023-11-24T18:40:40.088Z,101077.66
2023-11-24T18:43:08.557Z,101069.81
2023-11-24T18:45:36.876Z,101088.31
2023-11-24T18:48:06.598Z,101094.44
2023-11-24T18:50:34.949Z,101074.25
2023-11-24T18:53:03.691Z,101093.59
2023-11-24T18:55:32.252Z,101065.44
2023-11-24T18:58:02.063Z,101105.94
2023-11-24T19:00:30.544Z,101098.03
2023-11-24T19:03:01.233Z,101100.66
2023-11-24T19:05:29.580Z,101081.34
2023-11-24T19:07:57.901Z,101096.31
2023-11-24T19:10:26.408Z,101102.47
2023-11-24T19:12:55.987Z,101100.66
2023-11-24T19:15:25.728Z,101099.78
2023-11-24T19:17:55.063Z,101107.72
2023-11-24T19:20:23.605Z,101109.44
2023-11-24T19:22:51.914Z,101112.16
2023-11-24T19:25:20.472Z,101111.28
2023-11-24T19:27:48.832Z,101117.44
2023-11-24T19:30:17.549Z,101111.31
2023-11-24T19:32:47.514Z,101117.44
2023-11-24T19:35:16.041Z,101122.72
2023-11-24T19:37:45.658Z,101129.75
2023-11-24T19:40:15.427Z,101118.28
2023-11-24T19:42:43.876Z,101114.69
2023-11-24T19:45:12.475Z,101109.41
2023-11-24T19:47:40.799Z,101112.69
2023-11-24T19:50:11.558Z,101099.47
2023-11-24T19:52:40.919Z,101105.69
2023-11-24T19:55:10.114Z,100985.69
2023-11-24T19:57:38.484Z,101104.84
2023-11-24T20:00:09.179Z,101125.19
2023-11-24T20:02:37.735Z,101138.38
2023-11-24T20:05:07.739Z,101197.19
2023-11-24T20:07:37.514Z,101186.56
2023-11-24T20:10:07.958Z,101175.88
2023-11-24T20:12:36.375Z,101164.31
2023-11-24T20:15:05.457Z,101173.03
2023-11-24T20:17:34.928Z,101173.06
2023-11-24T20:20:04.483Z,101178.22
2023-11-24T20:22:32.885Z,101169.47
2023-11-24T20:25:04.559Z,101161.22
2023-11-24T20:27:33.041Z,101056.16
2023-11-24T20:30:01.554Z,101136.38
2023-11-24T20:32:29.923Z,101141.72
2023-11-24T20:34:58.840Z,101123.13
2023-11-24T20:37:27.466Z,101136.53
2023-11-24T20:39:57.198Z,101140.31
2023-11-24T20:42:27.171Z,101143.78
2023-11-24T20:44:55.504Z,101153.59
2023-11-24T20:47:23.810Z,101151.97
2023-11-24T20:49:52.558Z,101152.03
2023-11-24T20:52:21.500Z,101159.03
2023-11-24T20:54:51.158Z,101151.19
2023-11-24T20:57:19.482Z,101125.72
2023-11-24T20:59:49.140Z,101158.41
2023-11-24T21:02:18.464Z,101044.59
2023-11-24T21:04:47.329Z,101167.28
2023-11-24T21:07:17.260Z,101221.81
2023-11-24T21:09:45.679Z,101206.09
2023-11-24T21:12:14.157Z,101200.91
2023-11-24T21:14:42.487Z,101204.44
2023-11-24T21:17:12.178Z,101182.38
2023-11-24T21:19:41.003Z,101176.06
2023-11-24T21:22:09.640Z,101206.03
2023-11-24T21:24:39.185Z,101217.16
2023-11-24T21:27:07.673Z,101231.69
2023-11-24T21:29:36.046Z,101216.13
2023-11-24T21:32:05.448Z,101214.56
2023-11-24T21:34:35.174Z,101196.91
2023-11-24T21:37:04.274Z,101197.72
2023-11-24T21:39:32.630Z,101192.53
2023-11-24T21:42:00.970Z,101195.44
2023-11-24T21:44:29.788Z,101207.91
2023-11-24T21:46:58.335Z,101218.53
2023-11-24T21:49:27.121Z,101217.75
2023-11-24T21:51:56.973Z,101214.22
2023-11-24T21:54:25.714Z,101217.91
2023-11-24T21:56:54.276Z,101261.94
2023-11-24T21:59:22.787Z,101240.00
2023-11-24T22:01:51.153Z,101261.00
2023-11-24T22:04:19.649Z,101228.31
2023-11-24T22:06:48.622Z,101249.59
2023-11-24T22:09:20.628Z,101235.25
2023-11-24T22:11:49.646Z,101246.81
2023-11-24T22:14:19.337Z,101248.63
2023-11-24T22:16:47.703Z,101241.41
2023-11-24T22:19:17.812Z,101253.78
2023-11-24T22:21:47.934Z,101257.28
2023-11-24T22:24:17.696Z,101258.75
2023-11-24T22:26:46.476Z,101257.22
2023-11-24T22:29:15.463Z,101257.97
2023-11-24T22:31:43.936Z,101250.97
2023-11-24T22:34:12.498Z,101250.22
2023-11-24T22:36:40.923Z,101241.31
2023-11-24T22:39:09.518Z,101233.16
2023-11-24T22:41:39.529Z,101235.91
2023-11-24T22:44:10.158Z,101267.69
2023-11-24T22:46:38.504Z,101264.44
2023-11-24T22:49:06.986Z,101276.78
2023-11-24T22:51:35.309Z,101277.69
2023-11-24T22:54:04.185Z,101283.94
2023-11-24T22:56:33.217Z,101263.78
2023-11-24T22:59:03.092Z,101278.00
2023-11-24T23:01:31.654Z,101269.13
2023-11-24T23:04:01.904Z,101134.91
2023-11-24T23:06:30.509Z,101258.63
2023-11-24T23:08:59.594Z,101233.03
2023-11-24T23:11:30.167Z,101263.09
2023-11-24T23:13:58.957Z,101255.22
2023-11-24T23:16:30.372Z,101273.81
2023-11-24T23:18:59.482Z,101273.00
2023-11-24T23:21:27.820Z,101267.72
2023-11-24T23:23:56.567Z,101277.44
2023-11-24T23:26:26.351Z,101284.41
2023-11-24T23:28:55.031Z,101290.53
2023-11-24T23:31:25.738Z,101299.28
2023-11-24T23:33:57.402Z,101312.44
2023-11-24T23:36:25.861Z,101311.53
2023-11-24T23:38:54.241Z,101308.88
2023-11-24T23:41:22.581Z,101292.91
2023-11-24T23:43:51.009Z,101274.41
2023-11-24T23:46:19.508Z,101298.28
2023-11-24T23:48:48.746Z,101291.31
2023-11-24T23:51:18.840Z,101309.78
2023-11-24T23:53:47.325Z,101309.91
2023-11-24T23:56:15.807Z,101313.44
2023-11-24T23:58:44.982Z,101324.06
